createdAt,value
2022-08-22T00:02:13.923Z,25.07
2022-08-22T00:02:49.988Z,25.28
2022-08-22T00:07:58.210Z,25.08
2022-08-22T00:13:16.640Z,25.08
2022-08-22T00:18:42.828Z,25.10
2022-08-22T00:24:07.339Z,25.11
2022-08-22T00:29:32.468Z,25.12
2022-08-22T00:34:46.472Z,25.12
2022-08-22T00:40:03.421Z,25.14
2022-08-22T00:45:24.284Z,25.14
2022-08-22T00:50:47.826Z,25.13
2022-08-22T00:56:48.502Z,25.13
2022-08-22T01:05:17.900Z,25.12
2022-08-22T01:10:39.321Z,25.13
2022-08-22T01:15:43.179Z,25.11
2022-08-22T01:21:03.763Z,25.09
2022-08-22T01:26:19.440Z,25.06
2022-08-22T01:31:41.232Z,25.02
2022-08-22T01:37:04.721Z,25.00
2022-08-22T01:42:43.767Z,24.98
2022-08-22T01:47:58.980Z,24.95
2022-08-22T01:53:19.164Z,24.91
2022-08-22T01:58:32.357Z,24.88
2022-08-22T02:04:13.649Z,24.87
2022-08-22T02:09:57.161Z,24.84
2022-08-22T02:15:10.210Z,24.83
2022-08-22T02:20:41.288Z,24.82
2022-08-22T02:25:49.552Z,24.77
2022-08-22T02:31:16.845Z,24.77
2022-08-22T02:36:47.060Z,24.76
2022-08-22T02:42:08.652Z,24.77
2022-08-22T02:47:21.305Z,24.75
2022-08-22T02:52:48.277Z,24.77
2022-08-22T02:58:27.640Z,24.76
2022-08-22T03:03:36.322Z,24.75
2022-08-22T03:10:35.443Z,24.78
2022-08-22T03:16:22.702Z,24.79
2022-08-22T03:22:05.386Z,24.81
2022-08-22T03:27:32.327Z,24.81
2022-08-22T03:32:49.718Z,24.83
2022-08-22T03:37:56.651Z,24.84
2022-08-22T03:43:20.396Z,24.83
2022-08-22T03:48:35.466Z,24.76
2022-08-22T03:53:58.422Z,24.69
2022-08-22T03:59:09.878Z,24.68
2022-08-22T04:04:26.261Z,24.67
2022-08-22T04:10:04.065Z,24.67
2022-08-22T04:36:26.487Z,24.59
2022-08-22T04:41:52.203Z,24.61
2022-08-22T04:46:54.033Z,24.62
2022-08-22T04:52:08.114Z,24.61
2022-08-22T04:57:36.803Z,24.66
2022-08-22T05:02:44.860Z,24.67
2022-08-22T05:08:00.841Z,24.70
2022-08-22T05:13:08.943Z,24.67
2022-08-22T05:18:43.141Z,24.67
2022-08-22T05:23:56.910Z,24.63
2022-08-22T05:29:08.660Z,24.62
2022-08-22T05:34:17.267Z,24.62
2022-08-22T05:39:25.508Z,24.62
2022-08-22T05:44:43.286Z,24.61
2022-08-22T05:50:07.334Z,24.63
2022-08-22T05:55:27.507Z,24.63
2022-08-22T06:00:37.456Z,24.67
2022-08-22T06:05:45.011Z,24.74
2022-08-22T06:10:53.840Z,24.81
2022-08-22T06:16:17.693Z,24.87
2022-08-22T06:21:41.362Z,24.91
2022-08-22T06:26:48.939Z,24.98
2022-08-22T06:31:51.328Z,25.03
2022-08-22T06:37:20.259Z,25.04
2022-08-22T06:42:30.818Z,25.10
2022-08-22T06:47:39.148Z,25.19
2022-08-22T06:53:31.611Z,25.38
2022-08-22T06:58:39.143Z,25.60
2022-08-22T07:03:53.901Z,25.72
2022-08-22T07:08:56.809Z,25.88
2022-08-22T07:14:02.758Z,25.85
2022-08-22T07:19:14.010Z,25.80
2022-08-22T07:24:25.554Z,25.84
2022-08-22T07:29:30.077Z,25.90
2022-08-22T07:34:47.950Z,26.00
2022-08-22T07:40:00.798Z,26.08
2022-08-22T07:45:14.422Z,26.14
2022-08-22T07:50:29.621Z,26.16
2022-08-22T07:55:49.887Z,26.14
2022-08-22T08:00:57.323Z,26.14
2022-08-22T08:06:07.531Z,26.16
2022-08-22T08:11:14.773Z,26.22
2022-08-22T08:16:25.051Z,26.31
2022-08-22T08:21:54.917Z,26.40
2022-08-22T08:27:19.126Z,26.46
2022-08-22T08:32:30.353Z,26.52
2022-08-22T08:37:36.681Z,26.58
2022-08-22T08:43:16.829Z,27.17
2022-08-22T08:48:33.698Z,27.28
2022-08-22T08:54:05.620Z,27.54
2022-08-22T08:59:44.972Z,27.72
2022-08-22T09:05:13.685Z,27.83
2022-08-22T09:10:45.766Z,27.85
2022-08-22T09:16:11.511Z,28.11
2022-08-22T09:21:34.575Z,28.39
2022-08-22T09:26:41.175Z,28.20
2022-08-22T09:32:05.440Z,28.23
2022-08-22T09:37:26.948Z,28.70
2022-08-22T09:42:55.258Z,29.32
2022-08-22T09:48:28.048Z,29.56
2022-08-22T09:54:14.042Z,29.57
2022-08-22T09:59:34.397Z,29.57
2022-08-22T10:05:09.964Z,29.74
2022-08-22T10:10:35.563Z,29.88
2022-08-22T10:15:48.841Z,30.05
2022-08-22T10:21:26.542Z,29.78
2022-08-22T10:27:07.961Z,29.56
2022-08-22T10:32:49.750Z,29.39
2022-08-22T10:38:27.100Z,29.52
2022-08-22T10:43:56.364Z,29.26
2022-08-22T10:49:15.436Z,29.47
2022-08-22T10:54:37.474Z,29.46
2022-08-22T11:00:00.991Z,29.24
2022-08-22T11:05:28.110Z,29.09
2022-08-22T11:10:58.473Z,28.92
2022-08-22T11:16:14.073Z,28.86
2022-08-22T11:21:43.147Z,29.08
2022-08-22T11:26:53.312Z,29.42
2022-08-22T11:32:09.948Z,29.13
2022-08-22T11:37:18.189Z,28.80
2022-08-22T11:42:47.719Z,28.88
2022-08-22T11:48:19.998Z,28.98
2022-08-22T11:53:34.688Z,29.16
2022-08-22T11:59:18.395Z,29.11
2022-08-22T12:04:38.139Z,29.17
2022-08-22T12:09:58.327Z,29.21
2022-08-22T12:15:11.340Z,29.26
2022-08-22T12:20:55.711Z,29.23
2022-08-22T12:26:10.770Z,29.28
2022-08-22T12:31:26.103Z,29.18
2022-08-22T12:36:40.670Z,29.17
2022-08-22T12:42:12.049Z,29.21
2022-08-22T12:47:34.315Z,29.01
2022-08-22T12:52:52.575Z,28.99
2022-08-22T12:58:20.130Z,29.00
2022-08-22T13:03:24.649Z,28.91
2022-08-22T13:08:32.053Z,28.75
2022-08-22T13:13:56.202Z,28.61
2022-08-22T13:19:08.047Z,28.50
2022-08-22T13:24:38.538Z,28.51
2022-08-22T13:30:12.477Z,28.54
2022-08-22T13:35:44.553Z,28.58
2022-08-22T13:40:53.773Z,28.43
2022-08-22T13:46:30.878Z,28.36
2022-08-22T13:52:28.775Z,28.29
2022-08-22T13:57:39.433Z,28.27
2022-08-22T14:03:11.236Z,28.27
2022-08-22T14:08:33.682Z,28.30
2022-08-22T14:13:59.380Z,28.30
2022-08-22T14:19:27.263Z,28.33
2022-08-22T14:24:41.432Z,28.34
2022-08-22T14:29:52.881Z,28.26
2022-08-22T14:35:25.449Z,28.21
2022-08-22T14:40:37.860Z,28.14
2022-08-22T14:45:47.670Z,28.07
2022-08-22T14:51:04.389Z,27.97
2022-08-22T14:56:10.866Z,27.94
2022-08-22T15:01:16.040Z,27.92
2022-08-22T15:06:48.235Z,27.98
2022-08-22T15:12:03.842Z,27.95
2022-08-22T15:17:09.923Z,27.95
2022-08-22T15:22:25.919Z,27.99
2022-08-22T15:39:38.140Z,27.90
2022-08-22T15:44:44.199Z,27.83
2022-08-22T15:50:15.260Z,27.84
2022-08-22T15:55:24.616Z,27.86
2022-08-22T16:00:27.868Z,27.75
2022-08-22T16:06:04.052Z,27.71
2022-08-22T16:11:21.682Z,27.65
2022-08-22T16:16:26.545Z,27.73
2022-08-22T16:21:28.783Z,27.78
2022-08-22T16:26:30.868Z,27.80
2022-08-22T16:31:44.872Z,27.71
2022-08-22T16:37:08.732Z,27.71
2022-08-22T16:42:13.867Z,27.74
2022-08-22T16:47:37.327Z,27.73
2022-08-22T16:52:53.334Z,27.80
2022-08-22T16:58:11.368Z,27.82
2022-08-22T17:03:44.556Z,27.82
2022-08-22T17:09:13.149Z,27.76
2022-08-22T17:14:39.909Z,27.74
2022-08-22T17:20:19.271Z,27.70
2022-08-22T17:25:33.273Z,27.69
2022-08-22T17:30:53.916Z,27.68
2022-08-22T17:36:08.287Z,27.68
2022-08-22T17:41:49.783Z,27.66
2022-08-22T17:47:11.068Z,27.61
2022-08-22T17:52:28.069Z,27.57
2022-08-22T17:57:37.232Z,27.55
2022-08-22T18:02:50.928Z,27.53
2022-08-22T18:08:37.433Z,27.51
2022-08-22T18:14:12.245Z,27.50
2022-08-22T18:19:40.942Z,27.47
2022-08-22T18:24:59.567Z,27.42
2022-08-22T18:30:12.088Z,27.37
2022-08-22T18:35:26.865Z,27.31
2022-08-22T18:40:46.828Z,27.30
2022-08-22T18:45:51.699Z,27.28
2022-08-22T18:51:15.606Z,27.23
2022-08-22T18:56:48.847Z,27.22
2022-08-22T19:02:29.249Z,27.18
2022-08-22T19:07:51.121Z,27.16
2022-08-22T19:13:10.435Z,27.14
2022-08-22T19:18:29.503Z,27.14
2022-08-22T19:23:34.306Z,27.13
2022-08-22T19:28:37.575Z,27.13
2022-08-22T19:33:46.893Z,27.14
2022-08-22T19:38:53.617Z,27.15
2022-08-22T19:43:55.637Z,27.12
2022-08-22T19:48:58.424Z,27.08
2022-08-22T19:54:16.790Z,27.08
2022-08-22T19:59:20.436Z,27.08
2022-08-22T20:04:41.009Z,27.08
2022-08-22T20:09:45.538Z,27.08
2022-08-22T20:14:48.572Z,27.09
2022-08-22T20:20:27.927Z,27.06
2022-08-22T20:25:50.941Z,27.04
2022-08-22T20:30:58.608Z,27.04
2022-08-22T20:36:18.578Z,27.04
2022-08-22T20:41:50.223Z,27.02
2022-08-22T20:47:00.841Z,27.02
2022-08-22T20:52:07.521Z,27.01
2022-08-22T20:57:28.082Z,26.99
2022-08-22T21:02:37.870Z,26.99
2022-08-22T21:07:49.038Z,26.97
2022-08-22T21:13:16.803Z,26.98
2022-08-22T21:18:40.634Z,26.96
2022-08-22T21:23:56.408Z,26.95
2022-08-22T21:29:13.157Z,26.91
2022-08-22T21:34:22.944Z,26.89
2022-08-22T21:39:31.433Z,26.85
2022-08-22T21:44:41.758Z,26.85
2022-08-22T21:50:15.664Z,26.83
2022-08-22T21:55:34.414Z,26.79
2022-08-22T22:00:48.916Z,26.75
2022-08-22T22:05:57.373Z,26.72
2022-08-22T22:11:04.717Z,26.67
2022-08-22T22:16:12.356Z,26.61
2022-08-22T22:21:17.731Z,26.57
2022-08-22T22:26:21.480Z,26.53
2022-08-22T22:31:24.758Z,26.49
2022-08-22T22:36:30.104Z,26.46
2022-08-22T22:41:34.636Z,26.43
2022-08-22T22:46:57.883Z,26.42
2022-08-22T22:52:00.725Z,26.39
2022-08-22T22:57:02.650Z,26.33
2022-08-22T23:02:20.287Z,26.31
2022-08-22T23:07:24.843Z,26.28
2022-08-22T23:12:28.567Z,26.23
2022-08-22T23:17:33.447Z,26.22
2022-08-22T23:22:35.431Z,26.18
2022-08-22T23:27:40.064Z,26.17
2022-08-22T23:32:45.465Z,26.14
2022-08-22T23:37:48.570Z,26.10
2022-08-22T23:42:50.502Z,26.08
2022-08-22T23:47:55.614Z,26.06
2022-08-22T23:53:00.817Z,26.01
2022-08-22T23:58:05.627Z,25.99
